createdAt,value
2022-11-07T00:01:28.713Z,12.13
2022-11-07T00:04:34.415Z,12.55
2022-11-07T00:07:39.781Z,11.85
2022-11-07T00:10:44.818Z,10.82
2022-11-07T00:13:52.502Z,12.50
2022-11-07T00:16:58.049Z,11.00
2022-11-07T00:20:03.153Z,11.68
2022-11-07T00:23:08.554Z,11.82
2022-11-07T00:26:14.742Z,11.15
2022-11-07T00:29:22.998Z,11.98
2022-11-07T00:32:28.245Z,12.75
2022-11-07T00:35:33.458Z,11.60
2022-11-07T00:38:38.696Z,11.05
2022-11-07T00:41:44.216Z,12.30
2022-11-07T00:44:51.862Z,11.55
2022-11-07T00:47:57.079Z,11.87
2022-11-07T00:51:08.186Z,11.65
2022-11-07T00:54:13.365Z,12.48
2022-11-07T00:57:18.599Z,12.00
2022-11-07T01:00:26.391Z,12.32
2022-11-07T01:03:43.881Z,12.83
2022-11-07T01:06:49.349Z,11.57
2022-11-07T01:09:54.689Z,11.95
2022-11-07T01:12:59.878Z,11.07
2022-11-07T01:16:11.710Z,12.07
2022-11-07T01:19:16.698Z,11.65
2022-11-07T01:22:21.886Z,12.13
2022-11-07T01:25:27.025Z,11.80
2022-11-07T01:28:32.209Z,12.60
2022-11-07T01:31:39.879Z,11.45
2022-11-07T01:34:45.305Z,12.55
2022-11-07T01:37:50.348Z,12.15
2022-11-07T01:41:08.082Z,11.25
2022-11-07T01:44:28.259Z,11.82
2022-11-07T01:47:39.684Z,11.05
2022-11-07T01:50:44.951Z,12.23
2022-11-07T01:53:50.492Z,11.93
2022-11-07T01:56:56.722Z,12.13
2022-11-07T02:00:03.510Z,12.63
2022-11-07T02:03:14.262Z,11.38
2022-11-07T02:06:22.816Z,11.50
2022-11-07T02:09:28.039Z,11.05
2022-11-07T02:12:33.269Z,11.48
2022-11-07T02:15:58.886Z,11.63
2022-11-07T02:19:06.854Z,11.18
2022-11-07T02:22:16.771Z,10.73
2022-11-07T02:25:24.765Z,10.43
2022-11-07T02:28:31.195Z,11.95
2022-11-07T02:31:36.367Z,10.65
2022-11-07T02:34:41.789Z,10.95
2022-11-07T02:37:47.096Z,12.13
2022-11-07T02:40:57.508Z,10.90
2022-11-07T02:44:03.645Z,10.95
2022-11-07T02:47:09.084Z,10.82
2022-11-07T02:50:15.199Z,12.05
2022-11-07T02:53:20.584Z,11.05
2022-11-07T02:56:28.607Z,10.80
2022-11-07T02:59:33.976Z,10.52
2022-11-07T03:02:39.125Z,9.38
2022-11-07T03:05:44.502Z,9.73
2022-11-07T03:08:49.575Z,10.13
2022-11-07T03:11:57.650Z,9.73
2022-11-07T03:15:02.878Z,10.65
2022-11-07T03:18:09.040Z,10.20
2022-11-07T03:21:14.485Z,10.73
2022-11-07T03:24:19.776Z,9.88
2022-11-07T03:27:27.648Z,10.90
2022-11-07T03:30:33.119Z,9.70
2022-11-07T03:33:38.152Z,9.52
2022-11-07T03:36:43.526Z,9.13
2022-11-07T03:39:48.653Z,10.35
2022-11-07T03:42:56.549Z,8.82
2022-11-07T03:46:01.745Z,10.45
2022-11-07T03:49:07.246Z,9.40
2022-11-07T03:52:12.553Z,9.05
2022-11-07T03:55:18.578Z,10.20
2022-11-07T03:58:27.074Z,9.48
2022-11-07T04:04:37.474Z,8.75
2022-11-07T04:07:42.712Z,9.77
2022-11-07T04:10:48.127Z,9.95
2022-11-07T04:14:08.043Z,9.85
2022-11-07T04:17:22.910Z,9.48
2022-11-07T04:20:28.107Z,9.05
2022-11-07T04:23:33.268Z,9.93
2022-11-07T04:26:51.007Z,10.25
2022-11-07T04:29:59.318Z,8.83
2022-11-07T04:36:09.808Z,8.93
2022-11-07T04:39:15.178Z,8.93
2022-11-07T04:42:20.155Z,9.05
2022-11-07T04:45:28.115Z,10.73
2022-11-07T04:48:33.105Z,9.90
2022-11-07T04:51:43.963Z,8.68
2022-11-07T04:54:48.908Z,9.43
2022-11-07T04:57:53.979Z,8.80
2022-11-07T05:01:01.836Z,8.98
2022-11-07T05:04:07.317Z,8.70
2022-11-07T05:07:12.530Z,9.10
2022-11-07T05:10:20.730Z,8.10
2022-11-07T05:13:25.935Z,9.07
2022-11-07T05:16:34.611Z,9.43
2022-11-07T05:19:39.758Z,7.80
2022-11-07T05:22:57.117Z,7.70
2022-11-07T05:26:02.272Z,9.27
2022-11-07T05:29:09.163Z,8.13
2022-11-07T05:32:16.870Z,8.50
2022-11-07T05:35:22.096Z,8.75
2022-11-07T05:38:27.291Z,7.75
2022-11-07T05:41:32.774Z,6.97
2022-11-07T05:44:37.956Z,8.10
2022-11-07T05:47:45.884Z,7.95
2022-11-07T05:50:50.844Z,7.35
2022-11-07T05:53:56.249Z,7.60
2022-11-07T05:57:01.255Z,7.15
2022-11-07T06:00:07.052Z,7.70
2022-11-07T06:03:20.725Z,7.40
2022-11-07T06:06:26.215Z,7.28
2022-11-07T06:09:31.283Z,6.90
2022-11-07T06:12:36.682Z,7.55
2022-11-07T06:15:41.961Z,7.30
2022-11-07T06:18:50.002Z,7.70
2022-11-07T06:21:55.219Z,7.43
2022-11-07T06:25:00.297Z,7.63
2022-11-07T06:28:06.216Z,6.95
2022-11-07T06:31:11.621Z,7.60
2022-11-07T06:34:19.760Z,7.88
2022-11-07T06:37:28.530Z,8.07
2022-11-07T06:40:33.953Z,7.70
2022-11-07T06:43:39.563Z,7.97
2022-11-07T06:46:47.176Z,7.30
2022-11-07T06:49:55.046Z,7.83
2022-11-07T06:53:03.653Z,8.10
2022-11-07T06:56:13.599Z,7.95
2022-11-07T06:59:18.742Z,8.15
2022-11-07T07:02:44.369Z,6.90
2022-11-07T07:05:51.746Z,7.43
2022-11-07T07:08:57.185Z,6.80
2022-11-07T07:12:02.451Z,6.68
2022-11-07T07:15:07.903Z,6.95
2022-11-07T07:18:13.132Z,7.22
2022-11-07T07:21:20.880Z,7.43
2022-11-07T07:24:26.345Z,6.80
2022-11-07T07:27:31.563Z,7.10
2022-11-07T07:30:36.793Z,7.65
2022-11-07T07:33:41.950Z,6.70
2022-11-07T07:36:49.702Z,6.63
2022-11-07T07:39:54.778Z,6.85
2022-11-07T07:43:00.310Z,6.85
2022-11-07T07:46:06.620Z,7.22
2022-11-07T07:49:30.788Z,8.38
2022-11-07T07:52:38.832Z,6.95
2022-11-07T07:55:43.880Z,6.65
2022-11-07T07:58:49.490Z,6.68
2022-11-07T08:01:57.156Z,6.72
2022-11-07T08:05:02.832Z,6.57
2022-11-07T08:08:11.337Z,6.40
2022-11-07T08:11:16.741Z,7.90
2022-11-07T08:14:22.074Z,7.47
2022-11-07T08:17:27.574Z,6.45
2022-11-07T08:20:32.763Z,6.95
2022-11-07T08:23:40.945Z,7.68
2022-11-07T08:26:46.141Z,6.90
2022-11-07T08:29:51.358Z,7.18
2022-11-07T08:32:56.896Z,6.47
2022-11-07T08:36:03.445Z,6.63
2022-11-07T08:39:11.327Z,5.93
2022-11-07T08:42:16.374Z,6.07
2022-11-07T08:45:22.160Z,6.45
2022-11-07T08:48:27.456Z,6.35
2022-11-07T08:51:33.373Z,6.07
2022-11-07T08:54:41.294Z,6.35
2022-11-07T08:57:46.808Z,7.50
2022-11-07T09:00:52.343Z,7.82
2022-11-07T09:03:58.542Z,6.60
2022-11-07T09:07:04.041Z,7.00
2022-11-07T09:10:13.322Z,5.80
2022-11-07T09:13:20.926Z,7.22
2022-11-07T09:16:27.026Z,6.43
2022-11-07T09:19:32.566Z,7.40
2022-11-07T09:22:37.581Z,6.75
2022-11-07T09:25:45.298Z,6.53
2022-11-07T09:28:53.950Z,7.32
2022-11-07T09:32:17.295Z,7.45
2022-11-07T09:35:26.348Z,6.72
2022-11-07T09:38:31.975Z,7.68
2022-11-07T09:41:47.368Z,8.73
2022-11-07T09:44:57.416Z,6.93
2022-11-07T09:48:03.343Z,7.97
2022-11-07T09:51:09.314Z,8.35
2022-11-07T09:54:16.967Z,6.75
2022-11-07T09:57:27.913Z,6.75
2022-11-07T10:00:33.907Z,7.32
2022-11-07T10:04:23.042Z,7.65
2022-11-07T10:10:26.353Z,6.63
2022-11-07T10:13:46.305Z,7.10
2022-11-07T10:17:06.938Z,7.13
2022-11-07T10:20:24.313Z,7.47
2022-11-07T10:23:39.045Z,7.97
2022-11-07T10:26:45.841Z,8.25
2022-11-07T10:29:53.927Z,7.68
2022-11-07T10:33:06.778Z,6.65
2022-11-07T10:36:17.005Z,7.25
2022-11-07T10:39:22.931Z,7.43
2022-11-07T10:42:30.370Z,7.70
2022-11-07T10:45:35.624Z,7.70
2022-11-07T10:48:52.391Z,7.38
2022-11-07T10:51:58.217Z,7.88
2022-11-07T10:55:10.713Z,8.93
2022-11-07T10:58:19.853Z,7.60
2022-11-07T11:01:27.124Z,8.73
2022-11-07T11:04:36.392Z,8.20
2022-11-07T11:07:42.124Z,10.68
2022-11-07T11:10:47.892Z,9.20
2022-11-07T11:14:03.732Z,11.25
2022-11-07T11:17:08.940Z,9.40
2022-11-07T11:20:31.594Z,10.25
2022-11-07T11:23:39.189Z,9.20
2022-11-07T11:26:47.212Z,9.70
2022-11-07T11:29:57.844Z,8.68
2022-11-07T11:33:06.751Z,8.90
2022-11-07T11:36:19.367Z,9.43
2022-11-07T11:39:29.482Z,10.45
2022-11-07T11:42:37.231Z,10.35
2022-11-07T11:45:46.386Z,12.35
2022-11-07T11:48:53.904Z,10.27
2022-11-07T11:52:04.183Z,10.37
2022-11-07T11:55:15.786Z,10.50
2022-11-07T11:58:25.302Z,9.50
2022-11-07T12:01:37.341Z,10.07
2022-11-07T12:04:48.313Z,10.55
2022-11-07T12:07:58.622Z,10.23
2022-11-07T12:11:06.431Z,10.80
2022-11-07T12:14:19.064Z,9.95
2022-11-07T12:17:28.336Z,11.82
2022-11-07T12:20:36.222Z,10.88
2022-11-07T12:23:50.976Z,11.93
2022-11-07T12:27:01.458Z,12.85
2022-11-07T12:30:09.375Z,12.80
2022-11-07T12:33:22.282Z,12.20
2022-11-07T12:36:35.159Z,11.00
2022-11-07T12:39:54.068Z,11.82
2022-11-07T12:43:05.398Z,12.70
2022-11-07T12:46:16.330Z,12.82
2022-11-07T12:49:34.615Z,14.10
2022-11-07T12:55:49.469Z,13.93
2022-11-07T12:58:55.604Z,15.13
2022-11-07T13:02:05.674Z,14.73
2022-11-07T13:05:18.858Z,15.23
2022-11-07T13:08:28.748Z,14.57
2022-11-07T13:11:43.455Z,14.70
2022-11-07T13:14:48.686Z,14.65
2022-11-07T13:17:54.848Z,13.10
2022-11-07T13:21:03.551Z,14.27
2022-11-07T13:24:09.364Z,14.23
2022-11-07T13:27:24.300Z,13.50
2022-11-07T13:30:38.299Z,13.13
2022-11-07T13:33:43.476Z,14.50
2022-11-07T13:36:49.759Z,14.50
2022-11-07T13:39:56.441Z,12.93
2022-11-07T13:43:07.026Z,14.57
2022-11-07T13:46:13.825Z,14.55
2022-11-07T13:49:21.163Z,12.55
2022-11-07T13:52:27.255Z,11.77
2022-11-07T13:55:36.871Z,13.75
2022-11-07T13:58:44.890Z,13.43
2022-11-07T14:01:58.017Z,12.85
2022-11-07T14:05:20.266Z,13.05
2022-11-07T14:08:28.166Z,13.75
2022-11-07T14:11:33.214Z,12.73
2022-11-07T14:14:41.300Z,14.75
2022-11-07T14:17:47.007Z,14.73
2022-11-07T14:20:53.677Z,13.05
2022-11-07T14:23:58.771Z,14.43
2022-11-07T14:27:05.398Z,13.38
2022-11-07T14:30:19.424Z,13.77
2022-11-07T14:33:26.430Z,13.85
2022-11-07T14:36:32.557Z,14.77
2022-11-07T14:39:37.770Z,14.98
2022-11-07T14:42:44.495Z,15.27
2022-11-07T14:49:23.794Z,15.60
2022-11-07T14:52:29.997Z,14.77
2022-11-07T14:55:36.915Z,14.63
2022-11-07T14:58:42.184Z,14.32
2022-11-07T15:01:57.160Z,15.50
2022-11-07T15:05:10.762Z,15.55
2022-11-07T15:08:28.271Z,17.05
2022-11-07T15:11:35.084Z,16.10
2022-11-07T15:14:40.318Z,14.52
2022-11-07T15:17:49.247Z,17.85
2022-11-07T15:20:59.834Z,15.93
2022-11-07T15:24:24.940Z,15.98
2022-11-07T15:27:36.470Z,15.68
2022-11-07T15:30:41.666Z,15.65
2022-11-07T15:33:49.613Z,16.80
2022-11-07T15:36:54.669Z,17.02
2022-11-07T15:40:00.645Z,16.88
2022-11-07T15:43:05.752Z,17.50
2022-11-07T15:49:21.969Z,17.35
2022-11-07T15:52:27.242Z,18.07
2022-11-07T15:55:32.246Z,18.08
2022-11-07T15:58:38.241Z,16.90
2022-11-07T16:01:43.701Z,17.05
2022-11-07T16:04:51.644Z,16.33
2022-11-07T16:07:56.968Z,17.15
2022-11-07T16:11:08.122Z,16.23
2022-11-07T16:14:42.354Z,16.58
2022-11-07T16:17:42.503Z,16.98
2022-11-07T16:20:51.375Z,16.02
2022-11-07T16:23:56.800Z,17.40
2022-11-07T16:27:02.388Z,17.40
2022-11-07T16:30:09.871Z,15.40
2022-11-07T16:33:16.031Z,16.10
2022-11-07T16:36:24.647Z,16.65
2022-11-07T16:39:29.728Z,17.05
2022-11-07T16:42:35.148Z,15.52
2022-11-07T16:45:40.912Z,16.10
2022-11-07T16:48:46.954Z,15.13
2022-11-07T16:51:54.878Z,15.02
2022-11-07T16:54:59.931Z,15.48
2022-11-07T16:58:05.226Z,16.33
2022-11-07T17:01:10.509Z,15.23
2022-11-07T17:04:15.631Z,15.07
2022-11-07T17:07:23.899Z,14.85
2022-11-07T17:10:29.157Z,15.50
2022-11-07T17:13:34.735Z,16.13
2022-11-07T17:16:41.127Z,14.13
2022-11-07T17:19:46.430Z,13.75
2022-11-07T17:22:54.272Z,14.63
2022-11-07T17:26:02.495Z,14.15
2022-11-07T17:29:08.385Z,15.40
2022-11-07T17:32:13.477Z,15.40
2022-11-07T17:35:31.796Z,16.17
2022-11-07T17:38:40.186Z,14.75
2022-11-07T17:41:46.201Z,14.60
2022-11-07T17:44:51.305Z,14.30
2022-11-07T17:47:56.602Z,13.50
2022-11-07T17:51:01.769Z,13.57
2022-11-07T17:54:09.675Z,13.10
2022-11-07T17:57:14.979Z,13.50
2022-11-07T18:00:21.477Z,13.50
2022-11-07T18:03:26.714Z,13.48
2022-11-07T18:06:32.146Z,12.90
2022-11-07T18:09:40.082Z,13.43
2022-11-07T18:12:45.704Z,12.85
2022-11-07T18:15:51.580Z,13.13
2022-11-07T18:18:57.357Z,13.23
2022-11-07T18:22:02.568Z,13.45
2022-11-07T18:25:11.625Z,14.98
2022-11-07T18:28:17.591Z,14.05
2022-11-07T18:31:24.430Z,14.88
2022-11-07T18:34:29.431Z,12.98
2022-11-07T18:37:35.603Z,13.50
2022-11-07T18:40:43.245Z,13.88
2022-11-07T18:43:48.290Z,13.73
2022-11-07T18:46:53.503Z,12.73
2022-11-07T18:49:58.770Z,13.63
2022-11-07T18:53:04.503Z,13.90
2022-11-07T18:56:12.901Z,14.82
2022-11-07T19:02:22.877Z,14.85
2022-11-07T19:05:28.005Z,15.40
2022-11-07T19:08:33.757Z,14.40
2022-11-07T19:11:41.606Z,15.43
2022-11-07T19:14:46.754Z,14.63
2022-11-07T19:17:51.904Z,13.88
2022-11-07T19:20:57.290Z,15.32
2022-11-07T19:24:02.721Z,15.00
2022-11-07T19:27:10.915Z,14.32
2022-11-07T19:30:17.020Z,13.77
2022-11-07T19:33:22.088Z,14.88
2022-11-07T19:36:27.230Z,15.55
2022-11-07T19:39:32.562Z,15.70
2022-11-07T19:42:40.648Z,15.40
2022-11-07T19:45:45.805Z,17.40
2022-11-07T19:48:51.302Z,15.15
2022-11-07T19:51:56.381Z,15.57
2022-11-07T19:55:01.680Z,15.70
2022-11-07T19:58:10.919Z,15.30
2022-11-07T20:01:17.224Z,15.93
2022-11-07T20:04:22.264Z,14.45
2022-11-07T20:07:27.645Z,14.68
2022-11-07T20:10:32.961Z,13.77
2022-11-07T20:13:41.014Z,14.77
2022-11-07T20:16:46.070Z,15.02
2022-11-07T20:19:51.471Z,14.25
2022-11-07T20:22:56.852Z,15.68
2022-11-07T20:26:02.481Z,14.82
2022-11-07T20:29:10.128Z,17.42
2022-11-07T20:32:15.508Z,15.52
2022-11-07T20:35:20.532Z,17.00
2022-11-07T20:38:25.778Z,14.07
2022-11-07T20:41:31.039Z,15.18
2022-11-07T20:44:39.587Z,14.85
2022-11-07T20:50:50.540Z,14.88
2022-11-07T20:53:56.105Z,15.38
2022-11-07T20:57:01.485Z,15.55
2022-11-07T21:00:09.953Z,14.00
2022-11-07T21:03:18.109Z,16.00
2022-11-07T21:06:23.457Z,14.02
2022-11-07T21:09:28.858Z,14.93
2022-11-07T21:12:34.836Z,14.40
2022-11-07T21:15:44.038Z,15.00
2022-11-07T21:18:49.221Z,17.45
2022-11-07T21:21:54.563Z,14.38
2022-11-07T21:24:59.926Z,14.40
2022-11-07T21:28:04.939Z,13.98
2022-11-07T21:31:13.720Z,14.07
2022-11-07T21:34:21.522Z,14.88
2022-11-07T21:37:26.494Z,14.80
2022-11-07T21:40:31.745Z,13.73
2022-11-07T21:43:36.963Z,14.88
2022-11-07T21:46:44.967Z,14.45
2022-11-07T21:49:50.708Z,13.38
2022-11-07T21:52:55.778Z,13.40
2022-11-07T21:56:01.726Z,14.00
2022-11-07T21:59:08.172Z,13.48
2022-11-07T22:02:17.008Z,13.40
2022-11-07T22:05:22.195Z,15.90
2022-11-07T22:08:27.489Z,13.75
2022-11-07T22:11:32.939Z,13.73
2022-11-07T22:14:37.986Z,14.50
2022-11-07T22:17:45.803Z,13.50
2022-11-07T22:20:50.820Z,13.90
2022-11-07T22:23:56.196Z,14.27
2022-11-07T22:27:01.535Z,13.60
2022-11-07T22:30:07.495Z,14.48
2022-11-07T22:33:16.852Z,13.63
2022-11-07T22:36:22.793Z,14.35
2022-11-07T22:39:27.825Z,14.27
2022-11-07T22:42:32.885Z,13.05
2022-11-07T22:45:40.366Z,14.15
2022-11-07T22:48:48.838Z,14.80
2022-11-07T22:54:59.113Z,13.75
2022-11-07T22:58:04.122Z,13.35
2022-11-07T23:01:10.032Z,13.55
2022-11-07T23:04:19.148Z,14.02
2022-11-07T23:07:24.753Z,12.05
2022-11-07T23:10:29.879Z,17.63
2022-11-07T23:13:34.899Z,12.65
2022-11-07T23:16:41.526Z,14.93
2022-11-07T23:19:49.253Z,13.95
2022-11-07T23:22:54.609Z,12.70
2022-11-07T23:26:00.009Z,14.65
2022-11-07T23:29:10.553Z,14.10
2022-11-07T23:32:16.830Z,14.20
2022-11-07T23:35:24.474Z,15.23
2022-11-07T23:38:30.357Z,15.02
2022-11-07T23:41:35.535Z,14.15
2022-11-07T23:45:01.177Z,14.70
2022-11-07T23:48:20.625Z,14.02
2022-11-07T23:51:28.631Z,14.15
2022-11-07T23:54:46.146Z,14.88
2022-11-07T23:58:03.715Z,14.43
